createdAt,value
2022-10-14T00:00:25.294Z,99405.91
2022-10-14T00:02:51.862Z,99404.34
2022-10-14T00:05:18.324Z,99402.66
2022-10-14T00:07:44.961Z,99402.78
2022-10-14T00:10:11.348Z,99410.84
2022-10-14T00:12:37.798Z,99403.81
2022-10-14T00:15:04.644Z,99407.56
2022-10-14T00:17:31.113Z,99396.88
2022-10-14T00:19:57.605Z,99399.63
2022-10-14T00:22:24.096Z,99394.25
2022-10-14T00:24:50.504Z,99396.03
2022-10-14T00:27:16.929Z,99401.47
2022-10-14T00:29:43.399Z,99400.53
2022-10-14T00:32:09.805Z,99396.13
2022-10-14T00:34:36.642Z,99401.47
2022-10-14T00:37:03.089Z,99396.09
2022-10-14T00:39:29.464Z,99396.88
2022-10-14T00:41:55.904Z,99393.28
2022-10-14T00:44:25.422Z,99398.53
2022-10-14T00:46:51.953Z,99389.63
2022-10-14T00:49:29.924Z,99391.38
2022-10-14T00:52:02.090Z,99392.25
2022-10-14T00:54:32.023Z,99395.66
2022-10-14T00:56:58.750Z,99393.00
2022-10-14T00:59:25.188Z,99397.38
2022-10-14T01:01:51.740Z,99392.81
2022-10-14T01:04:18.115Z,99391.81
2022-10-14T01:06:47.561Z,99389.84
2022-10-14T01:09:28.643Z,99390.59
2022-10-14T01:12:35.183Z,99389.53
2022-10-14T01:14:53.355Z,99385.78
2022-10-14T01:17:28.441Z,99384.75
2022-10-14T01:20:13.491Z,99387.31
2022-10-14T01:22:53.515Z,99385.31
2022-10-14T01:25:25.959Z,99385.25
2022-10-14T01:27:59.482Z,99391.41
2022-10-14T01:30:29.660Z,99395.72
2022-10-14T01:33:12.345Z,99391.06
2022-10-14T01:35:45.924Z,99391.75
2022-10-14T01:38:20.097Z,99388.97
2022-10-14T01:40:50.061Z,99388.75
2022-10-14T01:43:17.981Z,99381.53
2022-10-14T01:45:46.913Z,99383.97
2022-10-14T01:48:15.414Z,99382.97
2022-10-14T01:50:44.706Z,99379.44
2022-10-14T01:53:31.325Z,99381.97
2022-10-14T01:55:58.822Z,99374.63
2022-10-14T01:58:27.204Z,99374.50
2022-10-14T02:00:53.780Z,99374.50
2022-10-14T02:03:20.146Z,99369.94
2022-10-14T02:05:52.429Z,99364.53
2022-10-14T02:08:41.086Z,99356.50
2022-10-14T02:11:11.317Z,99359.97
2022-10-14T02:13:51.784Z,99363.47
2022-10-14T02:16:37.046Z,99366.09
2022-10-14T02:19:23.658Z,99355.38
2022-10-14T02:22:06.561Z,99359.88
2022-10-14T02:24:32.929Z,99358.94
2022-10-14T02:27:01.973Z,99355.44
2022-10-14T02:29:30.383Z,99361.66
2022-10-14T02:31:58.956Z,99358.13
2022-10-14T02:34:25.817Z,99356.28
2022-10-14T02:36:53.353Z,99358.94
2022-10-14T02:39:22.431Z,99357.94
2022-10-14T02:41:48.869Z,99350.69
2022-10-14T02:44:15.525Z,99347.06
2022-10-14T02:46:42.641Z,99351.44
2022-10-14T02:49:09.263Z,99338.91
2022-10-14T02:51:35.704Z,99336.09
2022-10-14T02:54:02.437Z,99336.91
2022-10-14T02:56:28.965Z,99340.41
2022-10-14T02:58:55.382Z,99337.72
2022-10-14T03:01:21.909Z,99335.84
2022-10-14T03:03:48.341Z,99336.66
2022-10-14T03:06:14.723Z,99339.25
2022-10-14T03:08:41.173Z,99342.81
2022-10-14T03:11:07.590Z,99340.00
2022-10-14T03:13:34.135Z,99346.97
2022-10-14T03:16:00.744Z,99341.56
2022-10-14T03:18:27.212Z,99338.81
2022-10-14T03:20:53.857Z,99337.72
2022-10-14T03:23:20.255Z,99338.72
2022-10-14T03:25:46.891Z,99332.50
2022-10-14T03:28:13.376Z,99328.91
2022-10-14T03:30:40.156Z,99330.56
2022-10-14T03:33:06.563Z,99325.22
2022-10-14T03:35:33.065Z,99327.88
2022-10-14T03:38:02.456Z,99329.56
2022-10-14T03:40:29.370Z,99329.56
2022-10-14T03:42:57.899Z,99328.66
2022-10-14T03:45:24.330Z,99332.25
2022-10-14T03:47:50.766Z,99328.63
2022-10-14T03:50:17.171Z,99328.63
2022-10-14T03:52:46.649Z,99330.41
2022-10-14T03:55:13.760Z,99320.50
2022-10-14T03:57:40.621Z,99324.03
2022-10-14T04:00:07.397Z,99319.56
2022-10-14T04:02:33.773Z,99319.56
2022-10-14T04:05:01.165Z,99318.56
2022-10-14T04:07:27.795Z,99320.31
2022-10-14T04:09:54.412Z,99308.63
2022-10-14T04:12:21.504Z,99308.63
2022-10-14T04:14:48.123Z,99313.06
2022-10-14T04:17:15.123Z,99305.00
2022-10-14T04:19:41.558Z,99301.47
2022-10-14T04:22:08.284Z,99304.06
2022-10-14T04:24:34.726Z,99305.94
2022-10-14T04:27:01.215Z,99290.66
2022-10-14T04:29:27.645Z,99298.72
2022-10-14T04:31:54.083Z,99299.56
2022-10-14T04:34:20.915Z,99300.47
2022-10-14T04:36:47.291Z,99301.31
2022-10-14T04:39:15.310Z,99304.81
2022-10-14T04:41:42.483Z,99299.44
2022-10-14T04:44:08.875Z,99300.31
2022-10-14T04:46:35.292Z,99308.22
2022-10-14T04:49:01.816Z,99293.16
2022-10-14T04:51:28.255Z,99302.94
2022-10-14T04:53:54.711Z,99307.41
2022-10-14T04:56:21.133Z,99301.19
2022-10-14T04:58:47.549Z,99300.31
2022-10-14T05:01:14.032Z,99297.69
2022-10-14T05:03:40.403Z,99295.94
2022-10-14T05:06:06.857Z,99292.41
2022-10-14T05:08:33.280Z,99291.53
2022-10-14T05:11:00.222Z,99287.03
2022-10-14T05:13:26.726Z,99289.81
2022-10-14T05:15:53.235Z,99287.13
2022-10-14T05:18:19.902Z,99285.38
2022-10-14T05:20:46.413Z,99282.69
2022-10-14T05:23:12.917Z,99293.50
2022-10-14T05:25:39.351Z,99280.94
2022-10-14T05:28:05.821Z,99282.78
2022-10-14T05:30:34.680Z,99281.03
2022-10-14T05:33:01.348Z,99277.44
2022-10-14T05:35:46.717Z,99276.41
2022-10-14T05:38:14.597Z,99276.44
2022-10-14T05:40:41.124Z,99284.22
2022-10-14T05:43:07.663Z,99278.94
2022-10-14T05:45:34.227Z,99290.53
2022-10-14T05:48:00.610Z,99283.28
2022-10-14T05:50:27.245Z,99281.47
2022-10-14T05:52:53.724Z,99293.94
2022-10-14T05:55:20.089Z,99290.31
2022-10-14T05:57:46.531Z,99287.50
2022-10-14T06:00:14.029Z,99290.19
2022-10-14T06:02:40.723Z,99285.69
2022-10-14T06:05:07.321Z,99293.66
2022-10-14T06:07:35.544Z,99290.03
2022-10-14T06:10:01.989Z,99292.59
2022-10-14T06:12:28.393Z,99292.44
2022-10-14T06:14:54.859Z,99296.88
2022-10-14T06:17:21.303Z,99290.50
2022-10-14T06:19:47.702Z,99294.84
2022-10-14T06:22:14.208Z,99298.34
2022-10-14T06:24:40.605Z,99288.41
2022-10-14T06:27:07.011Z,99292.78
2022-10-14T06:29:37.974Z,99287.16
2022-10-14T06:32:08.250Z,99291.53
2022-10-14T06:34:34.749Z,99297.63
2022-10-14T06:37:02.595Z,99295.66
2022-10-14T06:39:29.188Z,99296.31
2022-10-14T06:41:55.632Z,99294.31
2022-10-14T06:44:22.026Z,99291.38
2022-10-14T06:46:48.569Z,99293.00
2022-10-14T06:49:15.005Z,99288.22
2022-10-14T06:51:41.478Z,99296.09
2022-10-14T06:54:08.183Z,99302.09
2022-10-14T06:56:35.090Z,99296.53
2022-10-14T06:59:01.512Z,99302.44
2022-10-14T07:01:27.976Z,99299.56
2022-10-14T07:03:56.673Z,99307.31
2022-10-14T07:06:23.499Z,99305.34
2022-10-14T07:08:49.996Z,99301.41
2022-10-14T07:11:16.396Z,99300.22
2022-10-14T07:13:42.983Z,99309.81
2022-10-14T07:16:09.767Z,99305.16
2022-10-14T07:18:36.205Z,99300.44
2022-10-14T07:21:06.233Z,99301.06
2022-10-14T07:23:32.710Z,99301.78
2022-10-14T07:26:00.020Z,99306.00
2022-10-14T07:28:26.539Z,99316.44
2022-10-14T07:31:00.105Z,99308.91
2022-10-14T07:33:27.043Z,99305.09
2022-10-14T07:35:53.517Z,99305.72
2022-10-14T07:38:20.080Z,99308.09
2022-10-14T07:40:55.081Z,99307.03
2022-10-14T07:43:21.461Z,99310.25
2022-10-14T07:45:48.195Z,99311.13
2022-10-14T07:48:17.086Z,99315.38
2022-10-14T07:50:49.360Z,99317.84
2022-10-14T07:53:15.794Z,99310.47
2022-10-14T07:55:52.108Z,99317.19
2022-10-14T07:58:19.619Z,99318.66
2022-10-14T08:00:46.191Z,99315.50
2022-10-14T08:03:12.626Z,99319.69
2022-10-14T08:05:39.269Z,99317.34
2022-10-14T08:08:05.726Z,99317.81
2022-10-14T08:10:32.318Z,99320.06
2022-10-14T08:13:00.761Z,99321.38
2022-10-14T08:15:29.793Z,99324.34
2022-10-14T08:17:56.773Z,99326.69
2022-10-14T08:20:23.197Z,99328.00
2022-10-14T08:22:49.597Z,99327.47
2022-10-14T08:25:16.061Z,99319.84
2022-10-14T08:27:42.591Z,99324.59
2022-10-14T08:30:11.309Z,99316.94
2022-10-14T08:32:37.870Z,99319.09
2022-10-14T08:35:04.452Z,99321.25
2022-10-14T08:37:30.874Z,99315.56
2022-10-14T08:39:57.310Z,99314.09
2022-10-14T08:42:26.522Z,99319.97
2022-10-14T08:45:08.877Z,99318.47
2022-10-14T08:47:36.972Z,99314.44
2022-10-14T08:50:06.969Z,99315.03
2022-10-14T08:52:37.233Z,99303.66
2022-10-14T08:55:10.013Z,99306.66
2022-10-14T08:57:40.878Z,99306.09
2022-10-14T09:00:10.603Z,99314.78
2022-10-14T09:02:46.309Z,99308.09
2022-10-14T09:05:16.766Z,99305.41
2022-10-14T09:07:44.763Z,99301.84
2022-10-14T09:10:12.728Z,99305.41
2022-10-14T09:12:39.673Z,99307.72
2022-10-14T09:15:44.541Z,99303.09
2022-10-14T09:18:13.935Z,99309.28
2022-10-14T09:20:41.419Z,99298.25
2022-10-14T09:23:10.686Z,99301.25
2022-10-14T09:25:38.903Z,99301.06
2022-10-14T09:28:05.434Z,99292.47
2022-10-14T09:30:34.944Z,99297.19
2022-10-14T09:33:01.455Z,99298.91
2022-10-14T09:35:32.480Z,99295.66
2022-10-14T09:37:59.325Z,99296.81
2022-10-14T09:40:40.755Z,99291.44
2022-10-14T09:43:10.292Z,99291.13
2022-10-14T09:45:48.918Z,99289.16
2022-10-14T09:48:17.371Z,99285.06
2022-10-14T09:50:49.917Z,99293.16
2022-10-14T09:53:17.946Z,99287.53
2022-10-14T09:55:55.528Z,99286.81
2022-10-14T09:58:29.482Z,99283.19
2022-10-14T10:00:57.075Z,99287.28
2022-10-14T10:03:33.807Z,99283.72
2022-10-14T10:06:08.334Z,99278.88
2022-10-14T10:08:36.838Z,99279.16
2022-10-14T10:11:07.044Z,99277.63
2022-10-14T10:13:35.670Z,99266.72
2022-10-14T10:16:03.591Z,99275.59
2022-10-14T10:18:30.459Z,99266.31
2022-10-14T10:21:02.273Z,99254.03
2022-10-14T10:23:29.931Z,99264.91
2022-10-14T10:25:58.676Z,99255.59
2022-10-14T10:28:31.959Z,99255.66
2022-10-14T10:31:17.816Z,99257.81
2022-10-14T10:33:50.553Z,99261.53
2022-10-14T10:36:29.269Z,99255.44
2022-10-14T10:39:01.066Z,99251.28
2022-10-14T10:41:30.885Z,99244.47
2022-10-14T10:44:16.011Z,99243.41
2022-10-14T10:46:47.111Z,99253.72
2022-10-14T10:49:13.475Z,99245.88
2022-10-14T10:51:54.336Z,99245.16
2022-10-14T10:54:23.524Z,99247.34
2022-10-14T10:56:56.121Z,99234.38
2022-10-14T10:59:33.530Z,99247.53
2022-10-14T11:02:12.502Z,99238.56
2022-10-14T11:04:50.721Z,99236.72
2022-10-14T11:07:51.260Z,99231.09
2022-10-14T11:10:36.489Z,99226.13
2022-10-14T11:13:11.936Z,99227.75
2022-10-14T11:15:58.805Z,99231.22
2022-10-14T11:18:46.563Z,99217.97
2022-10-14T11:21:12.914Z,99227.34
2022-10-14T11:23:39.420Z,99220.13
2022-10-14T11:26:12.072Z,99230.22
2022-10-14T11:29:01.466Z,99224.09
2022-10-14T11:31:34.272Z,99216.59
2022-10-14T11:34:06.867Z,99218.69
2022-10-14T11:36:55.206Z,99216.72
2022-10-14T11:39:24.367Z,99213.38
2022-10-14T11:42:03.956Z,99212.09
2022-10-14T11:44:38.138Z,99216.09
2022-10-14T11:47:10.086Z,99212.53
2022-10-14T11:49:55.739Z,99212.72
2022-10-14T11:52:42.427Z,99205.56
2022-10-14T11:55:14.742Z,99202.41
2022-10-14T11:57:46.285Z,99200.34
2022-10-14T12:00:33.591Z,99202.66
2022-10-14T12:03:09.906Z,99196.53
2022-10-14T12:05:39.257Z,99188.78
2022-10-14T12:08:25.912Z,99191.28
2022-10-14T12:11:01.341Z,99191.78
2022-10-14T12:13:41.723Z,99195.31
2022-10-14T12:16:13.079Z,99188.63
2022-10-14T12:18:40.032Z,99177.00
2022-10-14T12:21:15.669Z,99173.59
2022-10-14T12:24:08.487Z,99176.94
2022-10-14T12:26:41.038Z,99177.91
2022-10-14T12:29:10.905Z,99173.59
2022-10-14T12:31:38.713Z,99167.66
2022-10-14T12:34:11.143Z,99166.56
2022-10-14T12:36:38.243Z,99162.38
2022-10-14T12:39:16.803Z,99169.66
2022-10-14T12:42:02.214Z,99167.91
2022-10-14T12:44:33.199Z,99173.03
2022-10-14T12:46:59.637Z,99159.72
2022-10-14T12:49:30.489Z,99168.66
2022-10-14T12:51:59.634Z,99169.88
2022-10-14T12:54:26.448Z,99165.44
2022-10-14T12:57:00.860Z,99160.34
2022-10-14T12:59:29.707Z,99161.19
2022-10-14T13:01:58.177Z,99153.63
2022-10-14T13:04:25.415Z,99151.03
2022-10-14T13:07:11.775Z,99152.31
2022-10-14T13:09:38.557Z,99158.16
2022-10-14T13:12:05.042Z,99147.59
2022-10-14T13:14:32.733Z,99147.03
2022-10-14T13:17:03.118Z,99145.94
2022-10-14T13:19:32.415Z,99142.22
2022-10-14T13:21:59.837Z,99137.94
2022-10-14T13:24:30.437Z,99132.88
2022-10-14T13:27:09.800Z,99133.50
2022-10-14T13:29:39.086Z,99126.63
2022-10-14T13:32:23.766Z,99130.81
2022-10-14T13:35:11.288Z,99122.56
2022-10-14T13:37:43.436Z,99116.84
2022-10-14T13:42:43.443Z,99116.34
2022-10-14T13:45:12.376Z,99115.78
2022-10-14T13:47:42.151Z,99118.59
2022-10-14T13:50:11.422Z,99106.88
2022-10-14T13:52:38.224Z,99106.25
2022-10-14T13:55:24.976Z,99100.31
2022-10-14T13:58:13.034Z,99102.06
2022-10-14T14:00:42.950Z,99106.94
2022-10-14T14:03:15.526Z,99099.06
2022-10-14T14:05:42.256Z,99101.13
2022-10-14T14:08:42.541Z,99089.03
2022-10-14T14:11:17.728Z,99102.72
2022-10-14T14:14:01.483Z,99086.16
2022-10-14T14:16:48.307Z,99093.56
2022-10-14T14:19:19.591Z,99090.44
2022-10-14T14:21:46.263Z,99093.41
2022-10-14T14:24:30.585Z,99090.91
2022-10-14T14:26:57.081Z,99096.31
2022-10-14T14:29:26.160Z,99088.31
2022-10-14T14:32:08.570Z,99092.88
2022-10-14T14:34:36.961Z,99096.78
2022-10-14T14:40:00.363Z,99088.00
2022-10-14T14:42:27.711Z,99078.19
2022-10-14T14:44:59.511Z,99078.78
2022-10-14T14:47:27.004Z,99081.63
2022-10-14T14:50:01.557Z,99070.91
2022-10-14T14:52:40.484Z,99070.25
2022-10-14T14:55:07.039Z,99070.38
2022-10-14T14:57:33.469Z,99068.78
2022-10-14T15:00:05.095Z,99062.84
2022-10-14T15:02:33.271Z,99063.41
2022-10-14T15:05:04.400Z,99049.34
2022-10-14T15:07:30.898Z,99050.31
2022-10-14T15:09:58.955Z,99046.88
2022-10-14T15:12:25.536Z,99054.34
2022-10-14T15:14:52.162Z,99046.88
2022-10-14T15:17:29.911Z,99043.75
2022-10-14T15:19:57.174Z,99038.28
2022-10-14T15:22:31.470Z,99039.91
2022-10-14T15:24:59.513Z,99038.00
2022-10-14T15:27:38.336Z,99038.66
2022-10-14T15:30:22.093Z,99043.00
2022-10-14T15:32:49.599Z,99040.94
2022-10-14T15:35:17.012Z,99037.06
2022-10-14T15:37:43.448Z,99037.50
2022-10-14T15:40:18.893Z,99038.81
2022-10-14T15:42:46.344Z,99045.75
2022-10-14T15:45:13.248Z,99046.16
2022-10-14T15:47:40.572Z,99038.50
2022-10-14T15:50:09.176Z,99043.22
2022-10-14T15:52:36.016Z,99045.16
2022-10-14T15:55:13.628Z,99046.22
2022-10-14T15:57:40.067Z,99048.28
2022-10-14T16:00:06.746Z,99038.66
2022-10-14T16:02:33.515Z,99039.72
2022-10-14T16:05:18.907Z,99036.47
2022-10-14T16:07:45.752Z,99036.91
2022-10-14T16:10:14.903Z,99038.19
2022-10-14T16:12:41.408Z,99036.84
2022-10-14T16:15:22.503Z,99038.34
2022-10-14T16:17:52.073Z,99040.59
2022-10-14T16:20:19.638Z,99034.75
2022-10-14T16:22:46.091Z,99032.34
2022-10-14T16:25:24.005Z,99029.97
2022-10-14T16:27:50.866Z,99024.97
2022-10-14T16:30:17.431Z,99020.72
2022-10-14T16:32:43.919Z,99014.88
2022-10-14T16:35:10.613Z,99020.28
2022-10-14T16:37:38.227Z,99020.03
2022-10-14T16:40:05.241Z,99014.72
2022-10-14T16:42:31.699Z,99016.75
2022-10-14T16:44:58.139Z,99007.03
2022-10-14T16:47:24.980Z,99010.41
2022-10-14T16:49:54.748Z,99012.72
2022-10-14T16:52:21.563Z,99004.19
2022-10-14T16:54:48.204Z,99007.16
2022-10-14T16:57:14.729Z,99007.53
2022-10-14T16:59:41.361Z,99004.28
2022-10-14T17:02:11.375Z,99000.78
2022-10-14T17:04:37.936Z,99006.41
2022-10-14T17:07:07.529Z,99009.28
2022-10-14T17:09:35.532Z,99010.56
2022-10-14T17:12:02.449Z,99011.41
2022-10-14T17:14:31.462Z,99012.59
2022-10-14T17:16:59.507Z,99012.88
2022-10-14T17:19:26.300Z,99019.44
2022-10-14T17:21:53.101Z,99023.25
2022-10-14T17:24:19.531Z,99020.66
2022-10-14T17:26:46.042Z,99023.47
2022-10-14T17:29:12.622Z,99025.09
2022-10-14T17:31:39.163Z,99019.72
2022-10-14T17:34:05.838Z,99026.91
2022-10-14T17:36:32.249Z,99024.03
2022-10-14T17:38:59.175Z,99027.69
2022-10-14T17:41:26.761Z,99028.66
2022-10-14T17:43:55.965Z,99029.72
2022-10-14T17:46:23.835Z,99030.59
2022-10-14T17:48:54.458Z,99026.34
2022-10-14T17:51:25.177Z,99024.44
2022-10-14T17:53:55.320Z,99025.22
2022-10-14T17:56:21.741Z,99025.22
2022-10-14T17:58:51.117Z,99026.06
2022-10-14T18:01:17.789Z,99022.13
2022-10-14T18:03:44.637Z,99022.19
2022-10-14T18:06:13.364Z,99017.78
2022-10-14T18:08:40.876Z,99016.13
2022-10-14T18:11:10.806Z,99016.13
2022-10-14T18:13:37.581Z,99017.97
2022-10-14T18:16:12.224Z,99011.72
2022-10-14T18:18:39.560Z,99010.00
2022-10-14T18:21:06.246Z,99007.28
2022-10-14T18:23:33.907Z,99009.09
2022-10-14T18:26:06.292Z,99000.94
2022-10-14T18:28:36.533Z,99002.75
2022-10-14T18:31:03.955Z,98997.56
2022-10-14T18:33:31.832Z,98995.84
2022-10-14T18:35:58.944Z,98991.50
2022-10-14T18:38:25.408Z,98992.47
2022-10-14T18:41:02.181Z,98990.94
2022-10-14T18:43:29.239Z,98991.88
2022-10-14T18:46:05.139Z,98984.09
2022-10-14T18:48:31.607Z,98974.25
2022-10-14T18:50:59.555Z,98976.97
2022-10-14T18:53:26.476Z,98974.53
2022-10-14T18:55:56.742Z,98969.34
2022-10-14T18:58:26.069Z,98968.69
2022-10-14T19:00:52.616Z,98968.09
2022-10-14T19:03:19.007Z,98976.19
2022-10-14T19:05:47.291Z,98978.22
2022-10-14T19:10:45.196Z,98962.16
2022-10-14T19:13:12.292Z,98965.53
2022-10-14T19:15:45.254Z,98957.72
2022-10-14T19:18:14.255Z,98952.31
2022-10-14T19:20:41.856Z,98956.06
2022-10-14T19:23:08.455Z,98965.78
2022-10-14T19:25:36.036Z,98957.03
2022-10-14T19:28:02.409Z,98951.66
2022-10-14T19:30:28.900Z,98952.50
2022-10-14T19:32:55.331Z,98950.59
2022-10-14T19:35:21.913Z,98948.00
2022-10-14T19:37:48.518Z,98946.16
2022-10-14T19:40:17.721Z,98945.41
2022-10-14T19:42:46.570Z,98937.22
2022-10-14T19:45:13.012Z,98926.63
2022-10-14T19:47:39.443Z,98923.84
2022-10-14T19:50:06.162Z,98916.81
2022-10-14T19:52:32.627Z,98921.22
2022-10-14T19:54:59.063Z,98909.69
2022-10-14T19:57:25.487Z,98910.06
2022-10-14T19:59:52.039Z,98915.66
2022-10-14T20:02:18.447Z,98907.38
2022-10-14T20:04:44.932Z,98905.63
2022-10-14T20:07:13.366Z,98902.19
2022-10-14T20:09:39.827Z,98892.16
2022-10-14T20:12:06.334Z,98889.56
2022-10-14T20:14:32.714Z,98882.38
2022-10-14T20:16:59.172Z,98891.19
2022-10-14T20:19:25.581Z,98885.53
2022-10-14T20:21:52.062Z,98885.34
2022-10-14T20:24:18.454Z,98881.19
2022-10-14T20:26:45.080Z,98882.25
2022-10-14T20:29:11.505Z,98876.78
2022-10-14T20:31:37.946Z,98874.97
2022-10-14T20:34:10.083Z,98870.88
2022-10-14T20:36:37.629Z,98870.31
2022-10-14T20:39:04.068Z,98859.91
2022-10-14T20:41:31.094Z,98858.19
2022-10-14T20:43:57.629Z,98856.44
2022-10-14T20:46:25.112Z,98866.28
2022-10-14T20:48:58.421Z,98864.25
2022-10-14T20:51:25.108Z,98856.28
2022-10-14T20:53:58.573Z,98863.56
2022-10-14T20:56:31.202Z,98866.28
2022-10-14T20:58:58.267Z,98862.00
2022-10-14T21:01:25.150Z,98863.00
2022-10-14T21:03:52.075Z,98850.38
2022-10-14T21:06:20.103Z,98851.22
2022-10-14T21:08:46.815Z,98851.91
2022-10-14T21:11:15.549Z,98852.78
2022-10-14T21:13:52.544Z,98857.28
2022-10-14T21:16:22.058Z,98849.31
2022-10-14T21:18:53.590Z,98842.06
2022-10-14T21:21:24.003Z,98841.78
2022-10-14T21:23:50.462Z,98845.44
2022-10-14T21:26:17.051Z,98844.19
2022-10-14T21:28:43.647Z,98840.81
2022-10-14T21:31:13.627Z,98845.16
2022-10-14T21:33:42.497Z,98846.88
2022-10-14T21:36:12.990Z,98850.53
2022-10-14T21:38:39.702Z,98842.56
2022-10-14T21:41:06.519Z,98840.81
2022-10-14T21:43:34.630Z,98830.16
2022-10-14T21:46:01.894Z,98823.88
2022-10-14T21:48:28.270Z,98818.41
2022-10-14T21:51:02.842Z,98812.34
2022-10-14T21:53:29.931Z,98810.72
2022-10-14T21:55:56.393Z,98801.97
2022-10-14T21:58:22.801Z,98804.34
2022-10-14T22:00:49.260Z,98793.78
2022-10-14T22:03:17.692Z,98794.63
2022-10-14T22:05:44.553Z,98799.84
2022-10-14T22:08:10.986Z,98793.47
2022-10-14T22:10:47.265Z,98787.13
2022-10-14T22:13:13.695Z,98788.09
2022-10-14T22:15:43.306Z,98788.09
2022-10-14T22:18:10.087Z,98783.44
2022-10-14T22:20:36.847Z,98778.94
2022-10-14T22:23:03.524Z,98775.56
2022-10-14T22:25:29.969Z,98776.41
2022-10-14T22:27:56.431Z,98772.88
2022-10-14T22:30:22.852Z,98758.63
2022-10-14T22:32:49.250Z,98767.50
2022-10-14T22:35:15.694Z,98754.97
2022-10-14T22:37:42.080Z,98742.03
2022-10-14T22:40:08.746Z,98752.16
2022-10-14T22:42:36.911Z,98745.91
2022-10-14T22:45:06.029Z,98746.88
2022-10-14T22:47:32.554Z,98751.31
2022-10-14T22:49:58.976Z,98745.16
2022-10-14T22:52:25.618Z,98745.16
2022-10-14T22:54:52.299Z,98747.72
2022-10-14T22:57:18.670Z,98739.75
2022-10-14T22:59:45.070Z,98751.31
2022-10-14T23:02:11.443Z,98747.84
2022-10-14T23:04:37.910Z,98742.34
2022-10-14T23:07:06.910Z,98738.13
2022-10-14T23:12:05.564Z,98741.72
2022-10-14T23:14:32.152Z,98734.78
2022-10-14T23:16:58.537Z,98729.59
2022-10-14T23:19:25.197Z,98737.59
2022-10-14T23:21:51.631Z,98732.19
2022-10-14T23:24:18.073Z,98725.84
2022-10-14T23:26:44.466Z,98721.31
2022-10-14T23:29:11.659Z,98720.44
2022-10-14T23:31:39.383Z,98716.03
2022-10-14T23:34:07.147Z,98720.63
2022-10-14T23:36:33.936Z,98708.91
2022-10-14T23:39:00.405Z,98711.69
2022-10-14T23:41:26.794Z,98709.84
2022-10-14T23:43:53.451Z,98705.91
2022-10-14T23:46:20.075Z,98709.66
2022-10-14T23:48:55.417Z,98702.66
2022-10-14T23:51:32.980Z,98693.63
2022-10-14T23:53:59.427Z,98697.34
2022-10-14T23:56:25.867Z,98687.44
2022-10-14T23:58:52.303Z,98686.69
